Time;durP1;ratioP1;P1;durP2;ratioP2;P2;SDS_P1;SDS_P2;PMS_P1;PMS_P2;Temp;Humidity;BMP_temperature;BMP_pressure;BME280_temperature;BME280_humidity;BME280_pressure;Samples;Min_cycle;Max_cycle;Signal;HPM_P1;HPM_P2
2021/07/06 00:00:50;;;;;;;6.80;1.90;;;;;;;21.69;70.57;99797.22;4808653;29;20284;-64
2021/07/06 00:03:17;;;;;;;6.40;1.85;;;;;;;21.74;70.72;99802.41;4824858;29;20057;-62
2021/07/06 00:05:44;;;;;;;5.63;2.10;;;;;;;21.60;71.41;99796.88;4824942;29;20054;-62
2021/07/06 00:08:12;;;;;;;5.60;2.20;;;;;;;21.77;71.00;99795.19;4823573;29;20053;-62
2021/07/06 00:10:39;;;;;;;7.43;3.35;;;;;;;21.84;70.27;99809.19;4824810;29;20058;-63
2021/07/06 00:13:06;;;;;;;5.50;2.20;;;;;;;21.82;69.90;99798.38;4825053;29;20088;-62
2021/07/06 00:15:34;;;;;;;5.18;2.00;;;;;;;21.73;69.97;99792.41;4825419;29;20051;-62
2021/07/06 00:18:02;;;;;;;7.63;2.45;;;;;;;21.85;69.16;99772.31;4825488;29;20058;-63
2021/07/06 00:20:30;;;;;;;6.55;2.47;;;;;;;21.94;68.79;99769.06;4826455;29;20057;-62
2021/07/06 00:22:59;;;;;;;5.30;2.33;;;;;;;21.76;69.21;99771.19;4826370;29;20058;-62
2021/07/06 00:25:26;;;;;;;4.28;1.85;;;;;;;21.69;69.02;99748.81;4826364;29;20477;-65
2021/07/06 00:27:53;;;;;;;5.40;1.90;;;;;;;21.68;68.94;99756.41;4826625;29;20053;-62
2021/07/06 00:30:22;;;;;;;3.72;1.70;;;;;;;21.68;68.76;99753.59;4827531;29;20065;-62
2021/07/06 00:32:50;;;;;;;3.20;1.30;;;;;;;21.70;68.22;99748.38;4826588;29;20034;-62
2021/07/06 00:35:18;;;;;;;5.13;1.60;;;;;;;21.80;68.56;99761.56;4809219;29;20054;-62
2021/07/06 00:37:46;;;;;;;4.47;1.77;;;;;;;21.65;68.41;99768.44;4823305;29;20073;-61
2021/07/06 00:40:14;;;;;;;3.40;1.35;;;;;;;21.76;67.59;99745.94;4826172;29;20050;-61
2021/07/06 00:42:46;;;;;;;2.97;1.30;;;;;;;21.73;67.55;99744.75;4826096;29;20058;-63
2021/07/06 00:45:14;;;;;;;3.38;1.60;;;;;;;21.59;68.06;99778.47;4824352;29;20074;-61
2021/07/06 00:47:44;;;;;;;3.75;1.48;;;;;;;21.52;68.32;99770.13;4823872;29;20054;-62
2021/07/06 00:50:15;;;;;;;3.05;1.48;;;;;;;21.67;67.43;99777.22;4824733;29;20054;-63
2021/07/06 00:52:43;;;;;;;3.45;1.15;;;;;;;21.71;67.62;99775.19;4825902;29;20065;-62
2021/07/06 00:55:12;;;;;;;4.05;1.27;;;;;;;21.82;66.47;99775.16;4825869;29;20054;-62
2021/07/06 00:57:39;;;;;;;3.85;1.10;;;;;;;21.74;66.59;99765.97;4825282;29;20070;-62
2021/07/06 01:00:10;;;;;;;4.63;1.10;;;;;;;21.85;65.75;99777.94;4824390;29;20414;-63
2021/07/06 01:02:38;;;;;;;2.30;1.13;;;;;;;21.47;67.05;99769.75;4825487;29;20062;-62
2021/07/06 01:05:08;;;;;;;6.22;1.30;;;;;;;21.61;66.66;99778.06;4809680;29;20077;-63
2021/07/06 01:07:35;;;;;;;;;;;;;;;21.42;66.32;99789.78;4825695;29;20072;-62
2021/07/06 01:10:04;;;;;;;6.00;1.25;;;;;;;21.29;67.42;99778.25;4808458;29;19925;-62
2021/07/06 01:12:32;;;;;;;2.35;1.08;;;;;;;21.36;66.58;99771.81;4825398;29;20065;-62
2021/07/06 01:15:04;;;;;;;3.92;1.10;;;;;;;21.48;66.13;99774.16;4825645;29;20208;-62
2021/07/06 01:17:32;;;;;;;3.28;1.20;;;;;;;21.65;64.82;99778.84;4825373;29;20061;-62
2021/07/06 01:20:08;;;;;;;3.25;1.15;;;;;;;21.54;65.49;99787.31;4825369;29;20050;-61
2021/07/06 01:22:36;;;;;;;4.43;1.35;;;;;;;21.40;65.60;99801.41;4825708;29;20057;-62
2021/07/06 01:25:07;;;;;;;9.07;1.10;;;;;;;21.27;65.94;99813.50;4825385;29;20140;-63
2021/07/06 01:27:35;;;;;;;3.42;0.95;;;;;;;21.35;65.31;99810.25;4825237;29;20446;-62
2021/07/06 01:30:07;;;;;;;3.92;1.00;;;;;;;21.12;66.03;99795.94;4824836;29;20058;-62
2021/07/06 01:32:35;;;;;;;2.83;0.95;;;;;;;21.03;67.21;99792.75;4824913;29;20422;-63
2021/07/06 01:35:03;;;;;;;2.25;0.82;;;;;;;21.39;65.07;99805.44;4825010;29;20065;-63
2021/07/06 01:37:30;;;;;;;1.65;0.88;;;;;;;21.01;66.05;99801.56;4825164;29;20058;-62
2021/07/06 01:39:57;;;;;;;5.28;1.15;;;;;;;21.05;66.27;99795.97;4824930;29;20065;-61
2021/07/06 01:42:24;;;;;;;3.00;1.05;;;;;;;21.22;65.87;99812.69;4824860;29;20062;-62
2021/07/06 01:45:13;;;;;;;2.10;1.15;;;;;;;21.11;65.62;99794.34;4825195;29;20635;-63
2021/07/06 01:47:41;;;;;;;4.45;1.65;;;;;;;21.04;65.25;99806.34;4823858;29;20239;-62
2021/07/06 01:50:16;;;;;;;8.95;3.60;;;;;;;20.92;65.33;99798.38;4823921;29;20050;-62
2021/07/06 01:52:44;;;;;;;6.32;1.02;;;;;;;20.98;65.44;99804.34;4825611;29;20523;-62
2021/07/06 01:55:14;;;;;;;3.85;0.80;;;;;;;20.83;64.84;99819.59;4825132;29;20046;-62
2021/07/06 01:57:42;;;;;;;1.60;0.70;;;;;;;20.78;64.53;99828.41;4825759;29;20502;-62
2021/07/06 02:00:13;;;;;;;7.72;0.90;;;;;;;20.89;64.51;99843.16;4824513;29;20057;-63
2021/07/06 02:02:40;;;;;;;3.17;0.60;;;;;;;20.77;63.96;99855.59;4825163;29;20058;-62
2021/07/06 02:05:10;;;;;;;3.00;0.80;;;;;;;20.83;63.80;99847.59;4825284;29;20065;-62
2021/07/06 02:07:37;;;;;;;5.53;0.70;;;;;;;20.60;65.27;99859.22;4824812;29;20061;-62
2021/07/06 02:10:05;;;;;;;2.80;0.85;;;;;;;20.82;64.15;99845.97;4824523;29;20046;-62
2021/07/06 02:12:32;;;;;;;2.97;0.70;;;;;;;20.68;65.03;99860.81;4824981;29;20054;-62
2021/07/06 02:15:00;;;;;;;4.63;1.48;;;;;;;20.62;65.17;99876.44;4823981;29;20046;-62
2021/07/06 02:17:28;;;;;;;2.08;0.85;;;;;;;20.63;65.55;99888.41;4824608;29;20069;-63
2021/07/06 02:19:55;;;;;;;4.28;0.80;;;;;;;20.60;65.90;99881.63;4822396;29;20062;-62
2021/07/06 02:22:23;;;;;;;6.90;1.10;;;;;;;20.53;65.95;99881.63;4822543;29;20066;-63
2021/07/06 02:24:50;;;;;;;3.33;0.98;;;;;;;20.55;66.45;99892.41;4824713;29;20533;-62
2021/07/06 02:27:18;;;;;;;4.85;1.10;;;;;;;20.68;65.66;99900.00;4824937;29;20311;-63
2021/07/06 02:29:45;;;;;;;3.03;0.80;;;;;;;20.89;64.44;99894.38;4824153;29;20506;-62
2021/07/06 02:32:13;;;;;;;2.70;0.90;;;;;;;20.57;65.74;99895.59;4824863;29;20185;-62
2021/07/06 02:34:40;;;;;;;4.70;0.60;;;;;;;20.32;65.30;99886.41;4825013;29;20517;-63
2021/07/06 02:37:07;;;;;;;3.20;0.93;;;;;;;20.31;66.28;99893.97;4825046;29;20280;-62
2021/07/06 02:39:34;;;;;;;3.28;0.73;;;;;;;20.23;64.91;99886.78;4823902;29;20066;-64
2021/07/06 02:42:02;;;;;;;4.75;1.08;;;;;;;20.20;66.27;99900.78;4824212;29;20061;-63
2021/07/06 02:44:29;;;;;;;2.33;0.63;;;;;;;20.15;65.89;99874.75;4823467;29;20069;-63
2021/07/06 02:46:56;;;;;;;6.95;1.08;;;;;;;20.17;66.06;99879.22;4824567;29;20062;-61
2021/07/06 02:49:23;;;;;;;4.28;0.75;;;;;;;20.01;66.62;99891.50;4822662;29;20449;-62
2021/07/06 02:51:51;;;;;;;4.80;0.80;;;;;;;20.33;65.66;99908.38;4824331;29;20042;-64
2021/07/06 02:54:18;;;;;;;3.08;0.80;;;;;;;20.39;66.27;99901.19;4824591;29;20050;-62
2021/07/06 02:56:45;;;;;;;4.07;0.80;;;;;;;20.13;66.95;99901.53;4822709;29;20062;-62
2021/07/06 02:59:12;;;;;;;6.18;0.88;;;;;;;20.19;66.64;99905.56;4824953;29;20471;-62
2021/07/06 03:01:39;;;;;;;5.45;0.90;;;;;;;19.98;67.73;99909.09;4826107;29;20061;-62
2021/07/06 03:04:07;;;;;;;3.95;0.93;;;;;;;19.86;67.71;99912.25;4827853;29;20062;-62
2021/07/06 03:06:34;;;;;;;6.93;0.95;;;;;;;19.81;67.83;99909.84;4828195;29;20066;-63
2021/07/06 03:09:03;;;;;;;5.13;1.00;;;;;;;20.03;67.89;99905.91;4827110;29;20069;-61
2021/07/06 03:11:31;;;;;;;5.63;1.00;;;;;;;19.91;67.63;99911.09;4827269;29;20062;-62
2021/07/06 03:13:58;;;;;;;3.95;1.10;;;;;;;19.85;67.26;99907.06;4827599;29;20081;-62
2021/07/06 03:16:25;;;;;;;6.72;1.15;;;;;;;19.93;67.13;99903.09;4827448;29;20066;-62
2021/07/06 03:18:53;;;;;;;3.35;1.00;;;;;;;19.88;67.30;99915.47;4825630;29;20061;-62
2021/07/06 03:21:20;;;;;;;4.68;1.13;;;;;;;19.88;67.22;99903.47;4825853;29;20042;-62
2021/07/06 03:23:47;;;;;;;7.22;0.90;;;;;;;19.76;67.23;99896.25;4827429;29;20065;-62
2021/07/06 03:26:14;;;;;;;4.68;1.35;;;;;;;19.89;67.17;99894.69;4828073;29;20054;-62
2021/07/06 03:28:42;;;;;;;6.95;1.30;;;;;;;19.89;66.98;99902.28;4827132;29;20390;-62
2021/07/06 03:31:09;;;;;;;7.22;1.45;;;;;;;19.84;66.50;99897.88;4827426;29;20501;-62
2021/07/06 03:33:36;;;;;;;6.38;1.20;;;;;;;19.81;67.38;99892.28;4826918;29;20064;-63
2021/07/06 03:36:05;;;;;;;4.57;1.00;;;;;;;19.73;66.86;99893.47;4827114;29;20050;-63
2021/07/06 03:38:32;;;;;;;8.27;1.95;;;;;;;19.80;65.54;99888.69;4826596;29;20375;-61
2021/07/06 03:40:59;;;;;;;7.63;1.33;;;;;;;19.74;66.80;99884.69;4827129;29;20056;-63
2021/07/06 03:43:26;;;;;;;5.03;1.08;;;;;;;19.66;67.04;99882.25;4827385;29;20050;-62
2021/07/06 03:45:54;;;;;;;4.05;1.40;;;;;;;19.62;66.79;99895.41;4826909;29;20058;-62
2021/07/06 03:48:21;;;;;;;5.55;1.00;;;;;;;19.57;66.43;99890.19;4826167;29;20399;-62
2021/07/06 03:50:48;;;;;;;7.35;1.30;;;;;;;19.54;66.85;99911.38;4826978;29;20050;-62
2021/07/06 03:53:16;;;;;;;6.35;1.13;;;;;;;19.63;65.41;99908.97;4826973;29;20419;-61
2021/07/06 03:55:43;;;;;;;5.38;1.50;;;;;;;19.72;64.79;99894.63;4827276;29;20046;-61
2021/07/06 03:58:10;;;;;;;4.25;1.25;;;;;;;19.35;66.06;99897.72;4826644;29;20398;-61
2021/07/06 04:00:39;;;;;;;7.15;1.60;;;;;;;19.17;65.33;99907.94;4807480;29;20047;-62
2021/07/06 04:03:06;;;;;;;3.83;1.00;;;;;;;19.37;64.68;99911.28;4821947;29;20431;-61
2021/07/06 04:05:34;;;;;;;6.50;1.33;;;;;;;19.29;63.49;99904.00;4808822;29;20087;-61
2021/07/06 04:08:01;;;;;;;5.55;1.45;;;;;;;19.28;62.43;99908.00;4808644;29;20050;-63
2021/07/06 04:10:28;;;;;;;6.43;1.50;;;;;;;19.10;62.03;99921.88;4823355;29;20502;-62
2021/07/06 04:12:56;;;;;;;7.25;1.33;;;;;;;19.08;62.48;99913.88;4825065;29;20058;-63
2021/07/06 04:15:23;;;;;;;10.63;1.55;;;;;;;19.05;63.09;99923.03;4826707;29;20062;-62
2021/07/06 04:17:51;;;;;;;9.20;1.50;;;;;;;19.20;62.31;99929.50;4826513;29;20058;-62
2021/07/06 04:20:18;;;;;;;8.13;1.55;;;;;;;19.02;62.27;99934.19;4824492;29;20073;-61
2021/07/06 04:22:48;;;;;;;9.50;1.25;;;;;;;18.99;62.96;99944.13;4826121;29;20054;-62
2021/07/06 04:25:16;;;;;;;10.40;1.80;;;;;;;19.07;63.00;99942.19;4826351;29;20050;-62
2021/07/06 04:27:44;;;;;;;9.35;1.48;;;;;;;19.06;62.84;99948.94;4825041;29;20519;-62
2021/07/06 04:30:13;;;;;;;9.32;1.23;;;;;;;19.21;63.41;99949.84;4825818;29;20450;-63
2021/07/06 04:32:40;;;;;;;15.43;1.73;;;;;;;19.05;63.06;99944.56;4825963;29;20525;-62
2021/07/06 04:35:08;;;;;;;10.18;1.63;;;;;;;19.01;62.55;99947.34;4825024;29;20292;-63
2021/07/06 04:37:35;;;;;;;6.60;1.77;;;;;;;18.85;63.58;99951.59;4824906;29;20051;-62
2021/07/06 04:40:03;;;;;;;9.85;1.45;;;;;;;18.74;64.56;99956.28;4824647;29;20492;-63
2021/07/06 04:42:30;;;;;;;8.30;1.27;;;;;;;18.73;63.30;99961.06;4825992;29;20062;-61
2021/07/06 04:44:58;;;;;;;11.55;1.73;;;;;;;18.78;63.46;99960.72;4826218;29;20051;-62
2021/07/06 04:47:25;;;;;;;13.32;1.70;;;;;;;18.89;62.88;99960.78;4824730;29;20374;-63
2021/07/06 04:49:52;;;;;;;10.65;1.65;;;;;;;18.90;63.19;99979.13;4825694;29;20062;-63
2021/07/06 04:52:20;;;;;;;13.30;1.60;;;;;;;18.87;61.86;99972.34;4826106;29;20069;-62
2021/07/06 04:54:47;;;;;;;8.93;1.60;;;;;;;18.75;60.87;99963.47;4825220;29;20466;-62
2021/07/06 04:57:21;;;;;;;10.63;1.98;;;;;;;18.87;61.78;99972.34;4826327;29;20058;-62
2021/07/06 04:59:49;;;;;;;7.57;1.75;;;;;;;18.84;61.48;99964.75;4826266;29;20415;-63
2021/07/06 05:02:17;;;;;;;6.65;1.58;;;;;;;18.94;60.80;99974.38;4825317;29;20418;-62
2021/07/06 05:04:44;;;;;;;7.75;1.60;;;;;;;19.00;60.50;99970.06;4824132;29;20070;-62
2021/07/06 05:07:11;;;;;;;9.93;1.90;;;;;;;19.09;60.00;99968.50;4826066;29;20061;-63
2021/07/06 05:09:39;;;;;;;13.40;2.00;;;;;;;19.20;59.12;99967.78;4826054;29;20050;-62
2021/07/06 05:12:06;;;;;;;10.13;1.85;;;;;;;19.08;60.54;99974.50;4825415;29;20057;-63
2021/07/06 05:14:33;;;;;;;8.68;1.42;;;;;;;19.03;61.00;99972.88;4825629;29;20502;-62
2021/07/06 05:17:02;;;;;;;9.38;1.42;;;;;;;19.06;60.56;99965.69;4825734;29;20051;-62
2021/07/06 05:19:30;;;;;;;7.87;2.00;;;;;;;18.81;60.62;99981.47;4825438;29;20071;-62
2021/07/06 05:21:58;;;;;;;11.90;2.15;;;;;;;18.83;61.88;99970.69;4824705;29;20319;-63
2021/07/06 05:24:25;;;;;;;11.13;2.25;;;;;;;18.76;61.27;99979.00;4825270;29;20061;-62
2021/07/06 05:26:52;;;;;;;8.30;1.98;;;;;;;18.99;61.48;99976.81;4825528;29;20455;-62
2021/07/06 05:29:19;;;;;;;11.30;1.73;;;;;;;19.03;60.47;99978.44;4824727;29;20529;-62
2021/07/06 05:31:46;;;;;;;11.02;1.95;;;;;;;18.98;59.66;99989.97;4824885;29;20049;-62
2021/07/06 05:34:14;;;;;;;13.98;2.60;;;;;;;18.75;59.79;99986.59;4825522;29;20069;-62
2021/07/06 05:36:43;;;;;;;9.80;1.98;;;;;;;18.85;59.77;99993.44;4824311;29;20054;-62
2021/07/06 05:39:10;;;;;;;13.10;1.88;;;;;;;18.78;60.46;99996.97;4824005;29;20069;-62
2021/07/06 05:41:37;;;;;;;16.10;2.55;;;;;;;18.92;59.94;99994.31;4824932;29;20514;-63
2021/07/06 05:44:07;;;;;;;14.30;2.40;;;;;;;18.78;58.98;99999.78;4825213;29;20073;-62
2021/07/06 05:46:34;;;;;;;11.07;2.08;;;;;;;18.69;59.52;100007.66;4823779;29;20058;-62
2021/07/06 05:49:02;;;;;;;13.30;2.28;;;;;;;18.76;59.60;100012.50;4824602;29;20077;-62
2021/07/06 05:51:29;;;;;;;13.10;2.47;;;;;;;18.66;58.77;100004.84;4824533;29;20374;-62
2021/07/06 05:53:56;;;;;;;11.20;2.17;;;;;;;18.80;58.85;100002.16;4823485;29;20054;-66
2021/07/06 05:56:24;;;;;;;13.75;2.38;;;;;;;18.79;58.78;100000.59;4825383;29;20058;-62
2021/07/06 05:58:51;;;;;;;12.23;2.45;;;;;;;18.80;57.84;100004.97;4825415;29;20054;-63
2021/07/06 06:01:18;;;;;;;12.65;2.75;;;;;;;18.76;59.04;99996.56;4824397;29;20054;-62
2021/07/06 06:03:45;;;;;;;14.35;3.08;;;;;;;18.84;58.90;100003.00;4824702;29;20426;-62
2021/07/06 06:06:13;;;;;;;12.88;3.10;;;;;;;18.94;59.59;100017.06;4824397;29;20443;-62
2021/07/06 06:08:42;;;;;;;16.48;2.50;;;;;;;18.94;57.93;100041.38;4824133;29;20054;-62
2021/07/06 06:11:09;;;;;;;12.48;2.30;;;;;;;18.95;57.92;100026.25;4808509;29;20050;-62
2021/07/06 06:13:37;;;;;;;14.98;3.08;;;;;;;18.83;58.83;100032.91;4824263;29;20077;-62
2021/07/06 06:16:05;;;;;;;16.73;2.17;;;;;;;18.91;58.13;100029.00;4824234;29;20046;-63
2021/07/06 06:18:32;;;;;;;14.13;2.38;;;;;;;19.05;58.70;100028.31;4824594;29;20498;-63
2021/07/06 06:20:59;;;;;;;15.35;2.35;;;;;;;19.04;59.25;100030.28;4824202;29;20057;-62
2021/07/06 06:23:26;;;;;;;14.15;2.80;;;;;;;19.05;59.45;100031.91;4823765;29;20059;-63
2021/07/06 06:25:55;;;;;;;15.05;2.65;;;;;;;18.96;57.05;100028.63;4824997;29;20058;-63
2021/07/06 06:28:22;;;;;;;17.17;3.60;;;;;;;18.98;59.58;100047.78;4824948;29;20065;-63
2021/07/06 06:30:50;;;;;;;17.15;4.18;;;;;;;19.11;60.55;100045.50;4824589;29;20427;-61
2021/07/06 06:33:17;;;;;;;22.30;5.00;;;;;;;19.14;61.68;100061.47;4824448;29;20356;-62
2021/07/06 06:35:44;;;;;;;24.48;3.10;;;;;;;19.02;61.36;100068.94;4827801;29;20051;-62
2021/07/06 06:38:15;;;;;;;17.67;3.88;;;;;;;19.06;60.00;100057.81;4827483;29;20058;-63
2021/07/06 06:40:42;;;;;;;19.33;4.07;;;;;;;19.27;62.11;100071.94;4826739;29;20058;-63
2021/07/06 06:43:09;;;;;;;13.75;2.70;;;;;;;19.33;60.07;100070.44;4826701;29;20054;-62
2021/07/06 06:45:36;;;;;;;15.25;2.90;;;;;;;18.96;58.43;100078.06;4824580;29;20407;-62
2021/07/06 06:48:04;;;;;;;17.55;3.05;;;;;;;18.92;59.52;100078.03;4827512;29;20070;-62
2021/07/06 06:50:31;;;;;;;16.10;3.38;;;;;;;19.20;62.12;100076.66;4827885;29;20059;-62
2021/07/06 06:52:58;;;;;;;13.40;2.42;;;;;;;19.33;59.26;100091.97;4818276;29;20055;-63
2021/07/06 06:55:25;;;;;;;17.92;3.83;;;;;;;19.65;57.67;100085.41;4820815;29;20498;-63
2021/07/06 06:57:53;;;;;;;20.58;3.10;;;;;;;19.32;58.39;100093.19;4823283;29;20655;-63
2021/07/06 07:00:20;;;;;;;14.45;2.85;;;;;;;19.39;55.57;100079.25;4817565;29;20073;-65
2021/07/06 07:02:50;;;;;;;15.75;2.97;;;;;;;19.58;56.65;100092.97;4811623;29;20047;-65
2021/07/06 07:05:19;;;;;;;18.45;3.00;;;;;;;20.98;74.66;100095.56;4810483;29;20058;-51
2021/07/06 07:07:46;;;;;;;23.13;3.10;;;;;;;22.60;62.90;100084.88;4822101;29;20050;-45
2021/07/06 07:10:13;;;;;;;12.23;2.28;;;;;;;23.06;59.08;100081.78;4827815;29;20065;-45
2021/07/06 07:12:41;;;;;;;15.20;2.85;;;;;;;23.27;54.94;100088.03;4820274;29;20065;-46
2021/07/06 07:15:11;;;;;;;14.70;3.17;;;;;;;23.22;55.62;100087.69;4811484;29;20050;-44
2021/07/06 07:17:38;;;;;;;15.38;3.25;;;;;;;23.39;51.07;100092.38;4810870;29;20053;-43
2021/07/06 07:20:07;;;;;;;17.35;2.58;;;;;;;23.42;51.28;100088.75;4806990;29;20067;-43
2021/07/06 07:22:34;;;;;;;14.77;2.45;;;;;;;23.41;49.01;100101.22;4813892;29;20043;-44
2021/07/06 07:25:02;;;;;;;14.45;2.88;;;;;;;23.45;49.67;100107.56;4812237;29;20062;-44
2021/07/06 07:27:30;;;;;;;13.25;2.80;;;;;;;23.20;49.47;100104.16;4822419;29;20054;-43
2021/07/06 07:29:58;;;;;;;16.55;3.22;;;;;;;23.42;49.69;100108.41;4812592;29;20055;-43
2021/07/06 07:32:25;;;;;;;17.60;3.42;;;;;;;23.58;48.22;100113.50;4813265;29;20054;-41
2021/07/06 07:34:52;;;;;;;21.33;3.67;;;;;;;23.55;48.01;100111.53;4825294;29;20065;-42
2021/07/06 07:37:20;;;;;;;15.55;3.28;;;;;;;23.56;46.93;100118.72;4825677;29;20403;-43
2021/07/06 07:39:47;;;;;;;17.92;3.85;;;;;;;23.61;47.19;100116.28;4827126;29;20065;-44
2021/07/06 07:42:16;;;;;;;18.73;3.58;;;;;;;23.51;47.17;100120.00;4825545;29;20437;-46
2021/07/06 07:44:44;;;;;;;14.95;3.38;;;;;;;23.54;46.89;100118.38;4826748;29;20412;-43
2021/07/06 07:47:11;;;;;;;12.75;2.72;;;;;;;23.53;46.69;100123.19;4826010;29;20061;-42
2021/07/06 07:49:39;;;;;;;17.52;2.95;;;;;;;23.61;46.03;100123.91;4824833;29;20051;-43
2021/07/06 07:52:07;;;;;;;15.30;3.65;;;;;;;23.64;45.85;100120.28;4825858;29;20371;-42
2021/07/06 07:54:35;;;;;;;21.67;3.95;;;;;;;23.61;46.15;100127.53;4824621;29;20546;-43
2021/07/06 07:57:06;;;;;;;26.13;4.25;;;;;;;23.55;45.43;100123.56;4826177;29;20061;-44
2021/07/06 07:59:33;;;;;;;22.48;3.30;;;;;;;23.55;46.57;100125.56;4824605;29;20053;-43
2021/07/06 08:02:01;;;;;;;30.73;4.38;;;;;;;23.45;46.99;100129.28;4825626;29;20054;-43
2021/07/06 08:04:28;;;;;;;15.38;3.53;;;;;;;23.47;46.89;100141.69;4821241;29;20061;-43
2021/07/06 08:06:55;;;;;;;25.13;3.35;;;;;;;23.51;46.21;100138.84;4822992;29;20176;-43
2021/07/06 08:09:27;;;;;;;17.02;3.28;;;;;;;23.52;46.15;100138.44;4824560;29;20058;-43
2021/07/06 08:11:55;;;;;;;20.45;4.40;;;;;;;23.46;45.55;100150.56;4822339;29;20422;-43
2021/07/06 08:14:22;;;;;;;15.50;3.28;;;;;;;23.40;45.98;100158.63;4823886;29;20046;-42
2021/07/06 08:16:51;;;;;;;17.25;4.00;;;;;;;23.28;46.12;100161.94;4824712;29;20054;-43
2021/07/06 08:19:18;;;;;;;18.40;3.30;;;;;;;23.39;45.59;100160.66;4824452;29;20065;-45
2021/07/06 08:21:46;;;;;;;13.88;3.03;;;;;;;23.41;45.16;100166.63;4824310;29;20054;-44
2021/07/06 08:24:13;;;;;;;20.73;3.17;;;;;;;23.29;45.90;100169.94;4823518;29;20211;-43
2021/07/06 08:26:40;;;;;;;21.10;3.55;;;;;;;23.28;46.36;100167.53;4823878;29;20211;-43
2021/07/06 08:29:08;;;;;;;18.75;3.38;;;;;;;23.26;45.74;100184.00;4823950;29;20125;-44
2021/07/06 08:31:35;;;;;;;18.67;3.60;;;;;;;23.23;45.55;100190.44;4822897;29;20065;-45
2021/07/06 08:34:03;;;;;;;25.08;4.22;;;;;;;23.26;45.24;100187.59;4825163;29;20043;-43
2021/07/06 08:36:31;;;;;;;16.65;2.78;;;;;;;23.26;45.61;100195.22;4825370;29;20061;-50
2021/07/06 08:38:59;;;;;;;14.70;3.10;;;;;;;23.29;45.24;100198.03;4824902;29;20316;-49
2021/07/06 08:41:26;;;;;;;20.42;3.60;;;;;;;23.19;45.72;100196.09;4824086;29;20506;-49
2021/07/06 08:43:53;;;;;;;22.05;3.35;;;;;;;23.25;45.79;100204.88;4823812;29;20038;-52
2021/07/06 08:46:21;;;;;;;14.50;2.65;;;;;;;23.26;45.63;100198.84;4823691;29;20097;-49
2021/07/06 08:48:49;;;;;;;19.15;2.78;;;;;;;23.25;45.06;100194.44;4823020;29;20059;-48
2021/07/06 08:51:21;;;;;;;16.25;3.20;;;;;;;23.31;45.84;100206.06;4822043;29;20046;-50
2021/07/06 08:53:49;;;;;;;16.05;3.17;;;;;;;23.42;45.41;100206.81;4822629;29;20058;-50
2021/07/06 08:56:17;;;;;;;18.52;2.72;;;;;;;23.34;45.52;100214.47;4822500;29;20312;-49
2021/07/06 08:58:44;;;;;;;16.52;2.85;;;;;;;23.33;45.39;100224.13;4823758;29;20383;-51
2021/07/06 09:01:12;;;;;;;12.88;2.47;;;;;;;23.46;45.64;100220.84;4823483;29;20065;-55
2021/07/06 09:03:54;;;;;;;15.40;2.50;;;;;;;23.48;45.18;100224.84;4823891;29;20126;-48
2021/07/06 09:06:22;;;;;;;21.92;2.85;;;;;;;23.56;45.21;100234.81;4822640;29;20065;-47
2021/07/06 09:08:53;;;;;;;18.35;2.97;;;;;;;23.63;45.13;100234.78;4824661;29;20047;-47
2021/07/06 09:11:21;;;;;;;17.40;2.95;;;;;;;23.58;44.78;100232.41;4824238;29;20058;-49
2021/07/06 09:13:49;;;;;;;16.95;3.25;;;;;;;23.55;44.62;100238.03;4823685;29;20406;-51
2021/07/06 09:16:22;;;;;;;13.82;2.72;;;;;;;23.60;45.27;100229.16;4823284;29;20062;-50
2021/07/06 09:18:50;;;;;;;8.38;2.38;;;;;;;23.62;44.50;100230.38;4823996;29;20062;-49
2021/07/06 09:21:17;;;;;;;12.80;2.85;;;;;;;23.41;45.23;100227.72;4807755;29;20065;-53
2021/07/06 09:23:48;;;;;;;9.93;2.63;;;;;;;23.57;45.16;100225.19;4823731;29;20058;-51
2021/07/06 09:26:18;;;;;;;13.40;2.67;;;;;;;23.68;45.16;100227.88;4823578;29;20399;-51
2021/07/06 09:28:51;;;;;;;13.23;2.55;;;;;;;23.80;44.79;100218.97;4823662;29;20304;-49
2021/07/06 09:31:25;;;;;;;10.30;2.47;;;;;;;23.70;44.74;100231.09;4823334;29;20049;-49
2021/07/06 09:34:02;;;;;;;20.58;3.13;;;;;;;23.70;44.76;100226.28;4822551;29;20054;-52
2021/07/06 09:36:49;;;;;;;13.68;2.78;;;;;;;23.76;44.59;100232.25;4821791;29;20058;-50
2021/07/06 09:39:18;;;;;;;11.15;2.80;;;;;;;23.78;44.56;100230.63;4822721;29;20434;-49
2021/07/06 09:42:11;;;;;;;11.77;2.92;;;;;;;23.72;43.56;100234.28;4822032;29;20058;-51
2021/07/06 09:44:40;;;;;;;16.02;3.38;;;;;;;23.61;44.11;100233.56;4823305;29;20060;-53
2021/07/06 09:47:09;;;;;;;15.20;2.85;;;;;;;23.64;44.33;100227.13;4821810;29;20054;-49
2021/07/06 09:49:39;;;;;;;12.88;2.42;;;;;;;23.82;44.23;100222.97;4822121;29;20062;-49
2021/07/06 09:52:09;;;;;;;12.90;2.80;;;;;;;23.95;44.03;100234.50;4822902;29;20082;-51
2021/07/06 09:54:42;;;;;;;12.57;3.10;;;;;;;23.92;43.63;100224.88;4823102;29;20069;-50
2021/07/06 09:57:33;;;;;;;12.05;2.28;;;;;;;23.87;43.72;100233.75;4822047;29;20058;-52
2021/07/06 10:00:11;;;;;;;13.77;2.80;;;;;;;23.80;44.04;100228.19;4821980;29;20061;-54
2021/07/06 10:02:40;;;;;;;13.27;2.25;;;;;;;23.92;43.54;100240.97;4820417;29;20157;-52
2021/07/06 10:05:11;;;;;;;9.32;2.03;;;;;;;23.36;44.02;100237.34;4821978;29;20422;-48
2021/07/06 10:07:39;;;;;;;11.68;2.60;;;;;;;23.46;43.99;100241.31;4821857;29;20049;-51
2021/07/06 10:10:10;;;;;;;10.02;2.45;;;;;;;23.72;43.68;100249.16;4819948;29;20058;-52
2021/07/06 10:12:39;;;;;;;11.45;2.53;;;;;;;23.86;43.33;100237.81;4822581;29;20054;-51
2021/07/06 10:15:07;;;;;;;10.48;2.10;;;;;;;24.03;42.94;100248.13;4821206;29;20070;-54
2021/07/06 10:17:51;;;;;;;9.90;2.40;;;;;;;23.93;42.87;100254.63;4822149;29;20051;-50
2021/07/06 10:20:25;;;;;;;8.70;2.17;;;;;;;23.95;43.07;100269.09;4822600;29;20140;-48
2021/07/06 10:22:55;;;;;;;10.43;2.70;;;;;;;23.97;42.90;100261.00;4822035;29;20069;-48
2021/07/06 10:25:28;;;;;;;15.38;2.10;;;;;;;23.65;42.75;100268.91;4821589;29;20498;-48
2021/07/06 10:27:58;;;;;;;9.07;2.20;;;;;;;23.75;43.24;100268.03;4804767;29;20066;-51
2021/07/06 10:30:30;;;;;;;9.27;2.08;;;;;;;23.89;42.94;100265.09;4822659;29;20062;-49
2021/07/06 10:32:59;;;;;;;9.55;2.28;;;;;;;23.95;42.80;100269.09;4821624;29;20427;-49
2021/07/06 10:35:36;;;;;;;10.35;2.40;;;;;;;23.67;43.00;100269.31;4821687;29;20365;-50
2021/07/06 10:38:31;;;;;;;8.77;1.95;;;;;;;23.82;42.87;100276.41;4821952;29;20062;-51
2021/07/06 10:41:03;;;;;;;10.00;2.17;;;;;;;23.88;42.54;100266.31;4822449;29;20054;-51
2021/07/06 10:43:43;;;;;;;6.80;2.22;;;;;;;23.88;42.71;100274.78;4821333;29;21294;-49
2021/07/06 10:46:32;;;;;;;13.00;2.63;;;;;;;23.99;42.23;100275.50;4821846;29;20062;-50
2021/07/06 10:49:31;;;;;;;9.57;2.40;;;;;;;23.99;41.92;100292.38;4820002;29;20062;-51
2021/07/06 10:52:01;;;;;;;7.90;1.88;;;;;;;23.80;42.50;100283.69;4816567;29;20070;-53
2021/07/06 10:54:31;;;;;;;9.32;2.28;;;;;;;23.93;42.33;100285.56;4821541;29;20515;-50
2021/07/06 10:57:07;;;;;;;12.07;2.33;;;;;;;24.10;41.90;100281.84;4820016;29;20502;-56
2021/07/06 10:59:35;;;;;;;7.50;2.42;;;;;;;24.22;41.68;100284.16;4820240;29;20288;-49
2021/07/06 11:02:13;;;;;;;7.47;2.37;;;;;;;23.96;42.00;100286.75;4821914;29;20059;-48
2021/07/06 11:04:45;;;;;;;8.77;2.00;;;;;;;24.15;41.93;100284.22;4821829;29;20050;-51
2021/07/06 11:07:13;;;;;;;9.13;2.50;;;;;;;24.23;41.67;100271.66;4821980;29;20139;-49
2021/07/06 11:09:41;;;;;;;11.90;2.63;;;;;;;24.35;41.57;100285.25;4820195;29;20392;-46
2021/07/06 11:12:17;;;;;;;8.63;1.80;;;;;;;24.34;41.66;100286.44;4821076;29;20077;-47
2021/07/06 11:14:49;;;;;;;7.90;2.17;;;;;;;24.23;40.93;100284.94;4822445;29;20141;-49
2021/07/06 11:17:58;;;;;;;6.88;2.17;;;;;;;24.18;42.28;100282.59;4819677;29;20524;-48
2021/07/06 11:20:33;;;;;;;12.27;1.70;;;;;;;24.29;41.49;100275.63;4816967;29;20276;-49
2021/07/06 11:23:01;;;;;;;12.45;2.20;;;;;;;24.33;41.50;100293.31;4823685;29;20659;-51
2021/07/06 11:25:34;;;;;;;9.00;1.80;;;;;;;24.43;41.11;100283.13;4824045;29;20556;-51
2021/07/06 11:28:24;;;;;;;7.28;2.35;;;;;;;24.31;41.45;100292.91;4822495;29;20410;-46
2021/07/06 11:31:00;;;;;;;7.15;2.00;;;;;;;24.22;41.29;100289.78;4823693;29;20072;-50
2021/07/06 11:33:31;;;;;;;8.55;2.08;;;;;;;24.35;42.30;100292.88;4822588;29;20054;-49
2021/07/06 11:36:00;;;;;;;9.48;2.60;;;;;;;24.41;41.85;100300.44;4825083;29;20058;-51